createdAt,value
2023-04-15T00:00:29.116Z,5.93
2023-04-15T00:03:30.871Z,6.95
2023-04-15T00:06:32.548Z,5.65
2023-04-15T00:09:34.035Z,6.05
2023-04-15T00:12:35.559Z,7.50
2023-04-15T00:15:37.631Z,5.20
2023-04-15T00:18:39.223Z,3.40
2023-04-15T00:21:40.749Z,5.03
2023-04-15T00:24:42.995Z,4.13
2023-04-15T00:27:44.512Z,8.38
2023-04-15T00:30:46.311Z,4.18
2023-04-15T00:33:48.706Z,4.03
2023-04-15T00:36:53.602Z,4.38
2023-04-15T00:39:55.676Z,6.60
2023-04-15T00:42:57.719Z,3.70
2023-04-15T00:46:00.943Z,5.40
2023-04-15T00:49:04.087Z,4.87
2023-04-15T00:52:05.708Z,5.05
2023-04-15T00:55:08.119Z,4.70
2023-04-15T00:58:09.736Z,4.75
2023-04-15T01:01:11.451Z,2.83
2023-04-15T01:04:13.157Z,6.03
2023-04-15T01:07:15.105Z,6.88
2023-04-15T01:10:16.637Z,5.45
2023-04-15T01:13:18.144Z,3.85
2023-04-15T01:16:20.166Z,4.97
2023-04-15T01:19:22.019Z,4.60
2023-04-15T01:22:26.720Z,6.70
2023-04-15T01:25:33.205Z,6.50
2023-04-15T01:28:36.184Z,4.00
2023-04-15T01:31:39.434Z,9.15
2023-04-15T01:34:40.964Z,5.93
2023-04-15T01:37:42.627Z,5.25
2023-04-15T01:40:44.964Z,3.03
2023-04-15T01:43:46.708Z,6.50
2023-04-15T01:46:48.389Z,3.67
2023-04-15T01:49:49.889Z,3.95
2023-04-15T01:52:51.380Z,4.38
2023-04-15T01:55:53.210Z,6.00
2023-04-15T01:58:54.683Z,3.95
2023-04-15T02:01:56.191Z,6.32
2023-04-15T02:04:58.039Z,7.35
2023-04-15T02:07:59.500Z,3.63
2023-04-15T02:11:01.290Z,7.20
2023-04-15T02:14:06.851Z,3.55
2023-04-15T02:17:08.490Z,6.95
2023-04-15T02:20:10.690Z,5.95
2023-04-15T02:23:12.321Z,6.30
2023-04-15T02:26:14.190Z,6.18
2023-04-15T02:29:15.848Z,7.82
2023-04-15T02:32:17.585Z,5.45
2023-04-15T02:35:19.853Z,8.98
2023-04-15T02:38:21.390Z,7.53
2023-04-15T02:41:27.131Z,7.97
2023-04-15T02:44:28.685Z,6.32
2023-04-15T02:47:37.566Z,8.35
2023-04-15T02:50:40.899Z,8.40
2023-04-15T02:56:45.724Z,5.32
2023-04-15T02:59:47.287Z,5.15
2023-04-15T03:02:52.461Z,4.15
2023-04-15T03:05:54.319Z,4.88
2023-04-15T03:08:56.908Z,4.97
2023-04-15T03:11:58.540Z,4.65
2023-04-15T03:15:01.998Z,6.95
2023-04-15T03:18:09.675Z,4.47
2023-04-15T03:21:11.222Z,5.72
2023-04-15T03:24:13.785Z,5.95
2023-04-15T03:27:15.322Z,3.22
2023-04-15T03:30:17.356Z,2.92
2023-04-15T03:33:18.935Z,5.20
2023-04-15T03:36:20.650Z,4.43
2023-04-15T03:39:22.111Z,3.67
2023-04-15T03:42:23.878Z,7.07
2023-04-15T03:45:25.842Z,6.72
2023-04-15T03:48:27.424Z,6.70
2023-04-15T03:51:28.912Z,5.32
2023-04-15T03:54:30.440Z,7.55
2023-04-15T03:57:31.993Z,7.30
2023-04-15T04:00:33.545Z,5.00
2023-04-15T04:03:35.254Z,4.95
2023-04-15T04:06:36.949Z,7.70
2023-04-15T04:09:40.579Z,8.77
2023-04-15T04:12:42.107Z,6.25
2023-04-15T04:15:43.633Z,5.88
2023-04-15T04:18:45.365Z,8.80
2023-04-15T04:21:46.789Z,20.38
2023-04-15T04:24:48.259Z,7.05
2023-04-15T04:27:49.901Z,11.93
2023-04-15T04:30:51.786Z,8.52
2023-04-15T04:33:53.337Z,7.78
2023-04-15T04:36:54.852Z,6.63
2023-04-15T04:39:56.609Z,8.45
2023-04-15T04:42:58.204Z,8.38
2023-04-15T04:45:59.843Z,7.85
2023-04-15T04:49:01.709Z,8.77
2023-04-15T04:52:03.477Z,8.30
2023-04-15T04:55:05.674Z,9.18
2023-04-15T04:58:07.146Z,6.45
2023-04-15T05:01:09.114Z,4.97
2023-04-15T05:04:10.877Z,7.32
2023-04-15T05:07:12.651Z,5.88
2023-04-15T05:10:15.278Z,6.13
2023-04-15T05:13:16.825Z,6.55
2023-04-15T05:16:20.000Z,4.82
2023-04-15T05:19:21.579Z,8.27
2023-04-15T05:22:23.113Z,4.97
2023-04-15T05:25:24.675Z,7.05
2023-04-15T05:28:26.082Z,8.95
2023-04-15T05:31:27.709Z,4.97
2023-04-15T05:34:29.273Z,5.88
2023-04-15T05:37:30.864Z,9.70
2023-04-15T05:40:32.410Z,7.50
2023-04-15T05:43:33.874Z,14.57
2023-04-15T05:46:35.464Z,3.50
2023-04-15T05:49:37.113Z,6.68
2023-04-15T05:52:38.893Z,6.60
2023-04-15T05:55:40.372Z,4.95
2023-04-15T05:58:42.219Z,4.85
2023-04-15T06:01:43.996Z,3.28
2023-04-15T06:04:45.491Z,5.90
2023-04-15T06:07:48.614Z,6.75
2023-04-15T06:10:50.499Z,5.17
2023-04-15T06:13:51.964Z,6.30
2023-04-15T06:16:53.445Z,5.57
2023-04-15T06:19:55.863Z,5.18
2023-04-15T06:22:57.603Z,7.07
2023-04-15T06:25:59.069Z,5.38
2023-04-15T06:29:00.977Z,6.80
2023-04-15T06:32:02.600Z,9.52
2023-04-15T06:35:04.324Z,12.50
2023-04-15T06:38:06.153Z,9.38
2023-04-15T06:41:07.923Z,10.25
2023-04-15T06:44:09.470Z,6.32
2023-04-15T06:47:13.154Z,5.90
2023-04-15T06:50:14.759Z,5.63
2023-04-15T06:53:16.331Z,9.18
2023-04-15T06:56:17.773Z,7.57
2023-04-15T06:59:19.210Z,5.88
2023-04-15T07:02:21.380Z,5.65
2023-04-15T07:05:23.201Z,6.10
2023-04-15T07:08:25.544Z,7.45
2023-04-15T07:11:27.307Z,7.75
2023-04-15T07:14:29.488Z,8.93
2023-04-15T07:17:31.067Z,6.22
2023-04-15T07:20:32.555Z,6.30
2023-04-15T07:23:34.006Z,4.43
2023-04-15T07:26:35.407Z,6.80
2023-04-15T07:29:36.891Z,7.38
2023-04-15T07:32:38.471Z,4.90
2023-04-15T07:35:40.072Z,5.78
2023-04-15T07:38:41.718Z,5.47
2023-04-15T07:41:43.490Z,4.78
2023-04-15T07:44:44.977Z,7.57
2023-04-15T07:47:46.979Z,8.43
2023-04-15T07:50:48.609Z,8.45
2023-04-15T07:53:50.542Z,8.98
2023-04-15T07:56:51.999Z,10.25
2023-04-15T07:59:53.459Z,13.43
2023-04-15T08:02:57.436Z,8.73
2023-04-15T08:05:59.281Z,8.35
2023-04-15T08:09:00.979Z,4.63
2023-04-15T08:12:03.738Z,6.95
2023-04-15T08:15:05.779Z,6.78
2023-04-15T08:18:07.304Z,3.88
2023-04-15T08:21:09.366Z,6.70
2023-04-15T08:24:11.565Z,4.18
2023-04-15T08:27:13.544Z,8.00
2023-04-15T08:30:15.400Z,7.70
2023-04-15T08:33:17.158Z,5.00
2023-04-15T08:36:20.829Z,4.13
2023-04-15T08:39:22.362Z,6.97
2023-04-15T08:42:31.296Z,6.28
2023-04-15T08:45:33.729Z,3.38
2023-04-15T08:48:39.396Z,5.07
2023-04-15T08:51:41.833Z,3.97
2023-04-15T08:54:43.318Z,6.10
2023-04-15T08:57:44.870Z,4.82
2023-04-15T09:00:46.605Z,6.32
2023-04-15T09:03:49.353Z,3.33
2023-04-15T09:06:52.250Z,4.82
2023-04-15T09:09:54.173Z,4.15
2023-04-15T09:12:56.493Z,3.72
2023-04-15T09:16:01.424Z,5.18
2023-04-15T09:19:20.709Z,6.38
2023-04-15T09:22:22.264Z,3.25
2023-04-15T09:25:34.774Z,5.57
2023-04-15T09:28:43.503Z,3.13
2023-04-15T09:31:45.012Z,4.53
2023-04-15T09:34:46.837Z,4.07
2023-04-15T09:37:49.574Z,4.35
2023-04-15T09:40:51.581Z,6.38
2023-04-15T09:43:53.424Z,5.40
2023-04-15T09:46:54.944Z,4.97
2023-04-15T09:49:57.835Z,6.10
2023-04-15T09:52:59.840Z,6.35
2023-04-15T09:56:02.447Z,5.20
2023-04-15T09:59:05.306Z,3.67
2023-04-15T10:02:07.630Z,5.05
2023-04-15T10:05:15.360Z,4.40
2023-04-15T10:08:22.339Z,4.30
2023-04-15T10:11:24.798Z,4.45
2023-04-15T10:14:28.527Z,5.88
2023-04-15T10:17:35.541Z,4.15
2023-04-15T10:20:38.310Z,5.43
2023-04-15T10:23:40.067Z,3.33
2023-04-15T10:26:42.480Z,6.60
2023-04-15T10:29:44.074Z,4.13
2023-04-15T10:32:46.111Z,5.90
2023-04-15T10:35:51.835Z,5.38
2023-04-15T10:38:53.302Z,4.65
2023-04-15T10:42:08.003Z,5.78
2023-04-15T10:45:17.960Z,4.25
2023-04-15T10:48:19.514Z,4.45
2023-04-15T10:51:28.455Z,3.72
2023-04-15T10:54:29.890Z,4.90
2023-04-15T10:57:37.492Z,5.90
2023-04-15T11:00:39.812Z,3.35
2023-04-15T11:03:43.656Z,5.03
2023-04-15T11:09:49.479Z,4.57
2023-04-15T11:12:52.987Z,4.35
2023-04-15T11:15:58.842Z,6.18
2023-04-15T11:19:01.611Z,18.95
2023-04-15T11:22:09.122Z,5.85
2023-04-15T11:25:10.631Z,6.15
2023-04-15T11:28:13.220Z,5.60
2023-04-15T11:31:19.849Z,6.15
2023-04-15T11:34:24.191Z,6.05
2023-04-15T11:37:30.285Z,5.35
2023-04-15T11:40:33.475Z,4.88
2023-04-15T11:43:35.592Z,6.20
2023-04-15T11:46:37.224Z,6.10
2023-04-15T11:49:41.545Z,7.18
2023-04-15T11:53:01.519Z,7.38
2023-04-15T11:56:03.142Z,5.70
2023-04-15T11:59:04.663Z,6.70
2023-04-15T12:02:12.923Z,5.10
2023-04-15T12:05:14.530Z,8.35
2023-04-15T12:08:16.095Z,5.75
2023-04-15T12:11:17.729Z,7.07
2023-04-15T12:14:26.162Z,7.25
2023-04-15T12:17:28.037Z,8.10
2023-04-15T12:20:31.362Z,7.05
2023-04-15T12:23:37.806Z,6.75
2023-04-15T12:26:51.184Z,6.72
2023-04-15T12:30:04.766Z,8.47
2023-04-15T12:33:06.353Z,6.20
2023-04-15T12:36:08.316Z,5.32
2023-04-15T12:39:09.826Z,6.00
2023-04-15T12:42:11.899Z,7.07
2023-04-15T12:45:13.516Z,8.15
2023-04-15T12:48:15.051Z,8.80
2023-04-15T12:51:16.498Z,5.70
2023-04-15T12:54:18.724Z,5.80
2023-04-15T12:57:20.223Z,6.53
2023-04-15T13:00:21.909Z,7.70
2023-04-15T13:03:23.469Z,7.35
2023-04-15T13:06:25.204Z,6.32
2023-04-15T13:09:27.009Z,5.32
2023-04-15T13:12:28.609Z,6.13
2023-04-15T13:15:30.177Z,6.15
2023-04-15T13:18:31.808Z,10.10
2023-04-15T13:21:35.507Z,5.97
2023-04-15T13:24:39.224Z,7.53
2023-04-15T13:27:40.768Z,11.67
2023-04-15T13:30:42.950Z,6.20
2023-04-15T13:33:44.487Z,6.18
2023-04-15T13:36:46.048Z,6.85
2023-04-15T13:39:47.529Z,4.82
2023-04-15T13:42:49.012Z,6.85
2023-04-15T13:45:50.647Z,8.07
2023-04-15T13:48:52.193Z,4.82
2023-04-15T13:51:53.726Z,6.03
2023-04-15T13:55:07.889Z,5.80
2023-04-15T13:58:16.746Z,7.05
2023-04-15T14:01:18.270Z,6.68
2023-04-15T14:04:19.958Z,5.47
2023-04-15T14:07:21.651Z,5.35
2023-04-15T14:10:23.155Z,7.68
2023-04-15T14:13:24.881Z,7.43
2023-04-15T14:16:26.551Z,7.40
2023-04-15T14:19:28.217Z,8.52
2023-04-15T14:22:29.692Z,8.20
2023-04-15T14:25:33.983Z,8.55
2023-04-15T14:28:35.919Z,6.25
2023-04-15T14:31:37.957Z,7.18
2023-04-15T14:34:41.007Z,6.75
2023-04-15T14:37:42.572Z,8.82
2023-04-15T14:40:44.730Z,8.35
2023-04-15T14:43:46.202Z,7.88
2023-04-15T14:46:47.739Z,5.90
2023-04-15T14:49:49.242Z,7.40
2023-04-15T14:52:51.026Z,8.85
2023-04-15T14:55:52.561Z,6.18
2023-04-15T14:58:54.171Z,5.53
2023-04-15T15:01:55.786Z,7.07
2023-04-15T15:04:58.015Z,6.07
2023-04-15T15:07:59.658Z,5.75
2023-04-15T15:11:01.179Z,4.95
2023-04-15T15:14:02.647Z,6.53
2023-04-15T15:17:04.252Z,4.28
2023-04-15T15:20:06.387Z,4.28
2023-04-15T15:23:12.624Z,4.43
2023-04-15T15:26:14.396Z,5.38
2023-04-15T15:29:16.016Z,4.57
2023-04-15T15:32:17.684Z,5.03
2023-04-15T15:35:19.731Z,5.45
2023-04-15T15:38:22.552Z,5.97
2023-04-15T15:41:25.432Z,7.47
2023-04-15T15:44:26.863Z,5.90
2023-04-15T15:47:28.503Z,6.65
2023-04-15T15:50:30.129Z,6.85
2023-04-15T15:53:31.581Z,6.40
2023-04-15T15:56:34.368Z,8.18
2023-04-15T15:59:35.917Z,7.45
2023-04-15T16:03:04.187Z,6.72
2023-04-15T16:05:58.882Z,5.47
2023-04-15T16:09:00.438Z,5.15
2023-04-15T16:12:03.314Z,4.80
2023-04-15T16:15:05.490Z,5.18
2023-04-15T16:18:07.143Z,5.75
2023-04-15T16:21:08.815Z,7.97
2023-04-15T16:24:11.069Z,4.82
2023-04-15T16:27:16.113Z,8.00
2023-04-15T16:30:17.730Z,5.35
2023-04-15T16:33:19.305Z,6.18
2023-04-15T16:36:20.827Z,6.03
2023-04-15T16:39:23.960Z,5.57
2023-04-15T16:42:25.490Z,6.23
2023-04-15T16:45:27.011Z,4.45
2023-04-15T16:48:28.444Z,6.70
2023-04-15T16:51:31.493Z,5.00
2023-04-15T16:54:34.923Z,5.50
2023-04-15T16:58:00.501Z,7.53
2023-04-15T17:00:58.970Z,4.50
2023-04-15T17:04:00.616Z,5.50
2023-04-15T17:07:02.167Z,5.93
2023-04-15T17:10:03.864Z,7.55
2023-04-15T17:13:05.456Z,6.82
2023-04-15T17:16:07.265Z,6.40
2023-04-15T17:19:08.850Z,4.72
2023-04-15T17:22:10.609Z,5.72
2023-04-15T17:25:13.929Z,5.82
2023-04-15T17:28:15.430Z,8.88
2023-04-15T17:31:17.021Z,5.20
2023-04-15T17:34:18.657Z,4.88
2023-04-15T17:37:20.346Z,7.97
2023-04-15T17:40:21.978Z,6.00
2023-04-15T17:43:23.666Z,4.47
2023-04-15T17:46:25.426Z,4.10
2023-04-15T17:49:27.352Z,5.85
2023-04-15T17:52:28.967Z,6.78
2023-04-15T17:55:32.231Z,6.63
2023-04-15T17:58:33.742Z,5.27
2023-04-15T18:01:35.293Z,6.22
2023-04-15T18:04:36.923Z,5.85
2023-04-15T18:07:38.530Z,5.18
2023-04-15T18:10:40.174Z,5.03
2023-04-15T18:13:43.633Z,4.22
2023-04-15T18:16:45.591Z,7.72
2023-04-15T18:19:47.280Z,5.15
2023-04-15T18:22:48.879Z,5.93
2023-04-15T18:25:50.549Z,5.07
2023-04-15T18:28:52.032Z,4.28
2023-04-15T18:31:54.501Z,4.25
2023-04-15T18:34:56.638Z,5.20
2023-04-15T18:37:59.034Z,6.03
2023-04-15T18:41:00.862Z,4.07
2023-04-15T18:44:02.660Z,6.75
2023-04-15T18:47:04.532Z,7.13
2023-04-15T18:50:08.210Z,5.63
2023-04-15T18:53:09.766Z,8.35
2023-04-15T18:56:11.535Z,7.78
2023-04-15T18:59:29.659Z,6.95
2023-04-15T19:02:32.289Z,8.20
2023-04-15T19:05:33.964Z,4.38
2023-04-15T19:08:35.574Z,5.95
2023-04-15T19:11:37.341Z,5.75
2023-04-15T19:14:38.934Z,8.27
2023-04-15T19:17:40.610Z,5.65
2023-04-15T19:20:42.071Z,4.85
2023-04-15T19:23:43.738Z,6.72
2023-04-15T19:26:50.241Z,6.75
2023-04-15T19:29:51.797Z,7.00
2023-04-15T19:32:53.325Z,4.50
2023-04-15T19:35:54.997Z,4.88
2023-04-15T19:38:56.661Z,6.07
2023-04-15T19:41:59.005Z,5.75
2023-04-15T19:45:00.683Z,4.97
2023-04-15T19:48:02.534Z,6.18
2023-04-15T19:51:04.196Z,4.40
2023-04-15T19:54:05.844Z,6.75
2023-04-15T19:57:07.388Z,6.05
2023-04-15T20:00:09.708Z,5.22
2023-04-15T20:03:11.376Z,6.40
2023-04-15T20:06:16.757Z,5.82
2023-04-15T20:09:18.245Z,6.60
2023-04-15T20:12:50.487Z,5.05
2023-04-15T20:15:41.439Z,5.80
2023-04-15T20:18:42.944Z,7.05
2023-04-15T20:21:45.353Z,6.55
2023-04-15T20:24:46.794Z,4.60
2023-04-15T20:27:48.253Z,4.50
2023-04-15T20:30:49.765Z,4.97
2023-04-15T20:33:51.361Z,3.53
2023-04-15T20:36:52.891Z,3.95
2023-04-15T20:39:54.334Z,3.97
2023-04-15T20:42:56.242Z,3.63
2023-04-15T20:46:02.161Z,3.13
2023-04-15T20:49:08.453Z,3.90
2023-04-15T20:52:10.011Z,7.40
2023-04-15T20:55:11.526Z,5.07
2023-04-15T20:58:13.045Z,4.00
2023-04-15T21:01:14.764Z,4.07
2023-04-15T21:04:16.462Z,4.50
2023-04-15T21:07:18.041Z,4.22
2023-04-15T21:10:20.371Z,4.40
2023-04-15T21:13:23.035Z,4.07
2023-04-15T21:16:24.843Z,4.47
2023-04-15T21:19:26.599Z,4.50
2023-04-15T21:22:28.116Z,4.97
2023-04-15T21:25:29.575Z,4.38
2023-04-15T21:28:31.119Z,4.85
2023-04-15T21:31:32.762Z,7.32
2023-04-15T21:34:34.549Z,6.88
2023-04-15T21:37:37.539Z,6.38
2023-04-15T21:40:40.653Z,6.10
2023-04-15T21:43:42.180Z,6.43
2023-04-15T21:46:45.989Z,6.95
2023-04-15T21:52:49.281Z,7.38
2023-04-15T21:55:50.860Z,7.55
2023-04-15T21:58:56.837Z,7.68
2023-04-15T22:01:58.720Z,8.07
2023-04-15T22:05:00.414Z,8.98
2023-04-15T22:08:04.650Z,9.45
2023-04-15T22:11:08.161Z,10.05
2023-04-15T22:14:09.662Z,9.27
2023-04-15T22:17:11.208Z,9.13
2023-04-15T22:20:13.345Z,9.82
2023-04-15T22:23:17.428Z,12.07
2023-04-15T22:26:19.222Z,11.57
2023-04-15T22:29:21.382Z,12.82
2023-04-15T22:32:22.889Z,12.55
2023-04-15T22:35:24.353Z,10.75
2023-04-15T22:38:25.937Z,13.30
2023-04-15T22:41:27.463Z,13.23
2023-04-15T22:44:28.923Z,13.57
2023-04-15T22:47:30.687Z,12.70
2023-04-15T22:50:32.131Z,13.90
2023-04-15T22:53:33.889Z,15.40
2023-04-15T22:56:35.683Z,13.93
2023-04-15T22:59:37.168Z,14.07
2023-04-15T23:02:38.839Z,13.98
2023-04-15T23:05:41.088Z,13.85
2023-04-15T23:08:45.130Z,14.68
2023-04-15T23:11:47.377Z,16.35
2023-04-15T23:14:48.892Z,14.23
2023-04-15T23:17:50.410Z,17.23
2023-04-15T23:20:51.882Z,16.73
2023-04-15T23:23:53.554Z,16.42
2023-04-15T23:26:55.124Z,15.00
2023-04-15T23:29:56.671Z,17.13
2023-04-15T23:32:58.322Z,17.13
2023-04-15T23:35:59.893Z,15.65
2023-04-15T23:39:01.492Z,16.45
2023-04-15T23:42:03.579Z,17.58
2023-04-15T23:45:05.491Z,18.95
2023-04-15T23:48:07.080Z,18.25
2023-04-15T23:51:08.579Z,16.38
2023-04-15T23:54:10.056Z,17.95
2023-04-15T23:57:11.504Z,16.90
